Time;durP1;ratioP1;P1;durP2;ratioP2;P2;SDS_P1;SDS_P2;PMS_P1;PMS_P2;Temp;Humidity;BMP_temperature;BMP_pressure;BME280_temperature;BME280_humidity;BME280_pressure;Samples;Min_cycle;Max_cycle;Signal;HPM_P1;HPM_P2
2023/12/03 00:00:07;;;;;;;1999.90;999.90;;;-1.50;99.90;;;;;;5027198;28;20041;-74
2023/12/03 00:02:33;;;;;;;1999.90;999.90;;;-1.50;99.90;;;;;;5034269;28;20034;-74
2023/12/03 00:04:59;;;;;;;1999.90;999.90;;;-1.50;99.90;;;;;;5034844;28;20113;-73
2023/12/03 00:07:25;;;;;;;1999.90;999.90;;;-1.40;99.90;;;;;;5024162;28;20034;-74
2023/12/03 00:09:51;;;;;;;1999.90;999.90;;;-1.40;99.90;;;;;;5027096;28;20133;-74
2023/12/03 00:12:17;;;;;;;1999.90;999.90;;;-1.40;99.90;;;;;;5017171;28;20053;-74
2023/12/03 00:14:43;;;;;;;1999.90;999.90;;;-1.50;99.90;;;;;;5017423;28;20399;-74
2023/12/03 00:17:08;;;;;;;1999.90;999.90;;;-1.50;99.90;;;;;;5034534;28;20110;-74
2023/12/03 00:19:34;;;;;;;1999.90;999.90;;;-1.50;99.90;;;;;;5030464;28;20845;-74
2023/12/03 00:22:00;;;;;;;1999.90;999.90;;;-1.40;99.90;;;;;;5014369;28;20085;-72
2023/12/03 00:24:25;;;;;;;1999.90;999.90;;;-1.40;99.90;;;;;;5014003;28;20475;-72
2023/12/03 00:26:51;;;;;;;1999.90;999.90;;;-1.40;99.90;;;;;;5033748;28;20439;-74
2023/12/03 00:29:16;;;;;;;1999.90;999.90;;;-1.40;99.90;;;;;;5033606;28;20125;-74
2023/12/03 00:31:42;;;;;;;1999.90;999.90;;;-1.50;99.90;;;;;;5016378;28;20042;-74
2023/12/03 00:34:08;;;;;;;1999.90;999.90;;;-1.50;99.90;;;;;;5031463;28;20037;-74
2023/12/03 00:36:59;;;;;;;1999.90;999.90;;;-1.50;99.90;;;;;;5019287;28;20033;-72
2023/12/03 00:39:27;;;;;;;1999.90;999.90;;;-1.50;99.90;;;;;;5033911;28;20045;-72
2023/12/03 00:41:53;;;;;;;1999.90;999.90;;;-1.50;99.90;;;;;;5030588;28;20068;-72
2023/12/03 00:44:18;;;;;;;1999.90;999.90;;;-1.50;99.90;;;;;;5016774;28;20034;-72
2023/12/03 00:46:45;;;;;;;1999.90;999.90;;;-1.50;99.90;;;;;;5034207;28;20049;-72
2023/12/03 00:49:10;;;;;;;1999.90;999.90;;;-1.40;99.90;;;;;;5033875;28;20526;-74
2023/12/03 00:51:36;;;;;;;1999.90;999.90;;;-1.40;99.90;;;;;;5033664;28;20053;-74
2023/12/03 00:54:01;;;;;;;1999.90;999.90;;;-1.40;99.90;;;;;;5022180;28;20038;-74
2023/12/03 00:56:29;;;;;;;1999.90;999.90;;;-1.50;99.90;;;;;;5029288;28;20042;-74
2023/12/03 00:58:55;;;;;;;1999.90;999.90;;;-1.50;99.90;;;;;;5033083;28;20034;-74
2023/12/03 01:01:20;;;;;;;1999.90;999.90;;;-1.60;99.90;;;;;;5034412;28;20034;-74
2023/12/03 01:03:46;;;;;;;1999.90;999.90;;;-1.60;99.90;;;;;;5016027;28;20042;-74
2023/12/03 01:06:11;;;;;;;1999.90;999.90;;;-1.60;99.90;;;;;;5027504;28;20046;-74
2023/12/03 01:08:40;;;;;;;1999.90;999.90;;;-1.50;99.90;;;;;;5034044;28;20030;-74
2023/12/03 01:11:06;;;;;;;1999.90;999.90;;;-1.50;99.90;;;;;;5017200;28;20547;-74
2023/12/03 01:13:32;;;;;;;1999.90;999.90;;;-1.50;99.90;;;;;;5017198;28;20046;-74
2023/12/03 01:15:57;;;;;;;1999.90;999.90;;;-1.60;99.90;;;;;;5032802;28;20038;-74
2023/12/03 01:18:23;;;;;;;1999.90;999.90;;;-1.60;99.90;;;;;;5024764;28;20440;-74
2023/12/03 01:20:48;;;;;;;1999.90;999.90;;;-1.50;99.90;;;;;;5032608;28;20065;-74
2023/12/03 01:23:14;;;;;;;1999.90;999.90;;;-1.50;99.90;;;;;;5022186;28;20054;-74
2023/12/03 01:25:45;;;;;;;1999.90;999.90;;;-1.50;99.90;;;;;;5025812;28;20054;-74
2023/12/03 01:28:11;;;;;;;1999.90;999.90;;;-1.50;99.90;;;;;;5016192;28;20121;-74
2023/12/03 01:30:37;;;;;;;1999.90;999.90;;;-1.50;99.90;;;;;;5031295;28;20060;-74
2023/12/03 01:33:02;;;;;;;1999.90;999.90;;;-1.50;99.90;;;;;;5020282;28;20399;-74
2023/12/03 01:35:28;;;;;;;1999.90;999.90;;;-1.50;99.90;;;;;;5037231;28;20061;-74
2023/12/03 01:37:53;;;;;;;1999.90;999.90;;;-1.50;99.90;;;;;;5036224;28;20044;-74
2023/12/03 01:40:19;;;;;;;1999.90;999.90;;;-1.50;99.90;;;;;;5017888;28;20050;-74
2023/12/03 01:42:45;;;;;;;1999.90;999.90;;;-1.50;99.90;;;;;;5027823;28;20108;-74
2023/12/03 01:45:11;;;;;;;1999.90;999.90;;;-1.60;99.90;;;;;;5025986;28;20542;-74
2023/12/03 01:47:37;;;;;;;1999.90;999.90;;;-1.60;99.90;;;;;;5029703;28;20116;-74
2023/12/03 01:50:07;;;;;;;1999.90;999.90;;;-1.60;99.90;;;;;;5026342;28;20049;-74
2023/12/03 01:52:36;;;;;;;1999.90;999.90;;;-1.60;99.90;;;;;;5029390;28;20038;-74
2023/12/03 01:55:03;;;;;;;1999.90;999.90;;;-1.60;99.90;;;;;;5032426;28;20105;-74
2023/12/03 01:57:29;;;;;;;1999.90;999.90;;;-1.60;99.90;;;;;;5034665;28;20048;-74
2023/12/03 01:59:55;;;;;;;1999.90;999.90;;;-1.60;99.90;;;;;;5035335;28;20109;-74
2023/12/03 02:02:21;;;;;;;1999.90;999.90;;;-1.50;99.90;;;;;;5036789;28;20038;-74
2023/12/03 02:04:47;;;;;;;1999.90;999.90;;;-1.50;99.90;;;;;;5035402;28;20539;-74
2023/12/03 02:07:13;;;;;;;1999.90;999.90;;;-1.50;99.90;;;;;;5035358;28;20487;-74
2023/12/03 02:09:39;;;;;;;1999.90;999.90;;;-1.50;99.90;;;;;;5036665;28;20045;-74
2023/12/03 02:12:05;;;;;;;1999.90;999.90;;;-1.40;99.90;;;;;;5036609;28;20042;-74
2023/12/03 02:14:30;;;;;;;1999.90;999.90;;;-1.40;99.90;;;;;;5036463;28;20038;-74
2023/12/03 02:16:56;;;;;;;1999.90;999.90;;;-1.40;99.90;;;;;;5036554;28;20038;-74
2023/12/03 02:19:21;;;;;;;1999.90;999.90;;;-1.50;99.90;;;;;;5036088;28;20104;-74
2023/12/03 02:21:47;;;;;;;1999.90;999.90;;;-1.50;99.90;;;;;;5035810;28;20033;-74
2023/12/03 02:24:13;;;;;;;1999.90;999.90;;;-1.50;99.90;;;;;;5036733;28;20032;-74
2023/12/03 02:26:38;;;;;;;1999.90;999.90;;;-1.50;99.90;;;;;;5036290;28;20030;-74
2023/12/03 02:29:04;;;;;;;1999.90;999.90;;;-1.50;99.90;;;;;;5036172;28;20033;-74
2023/12/03 02:31:30;;;;;;;1999.90;999.90;;;-1.60;99.90;;;;;;5036309;28;20369;-74
2023/12/03 02:34:12;;;;;;;1999.90;999.90;;;-1.50;99.90;;;;;;5036291;28;20030;-74
2023/12/03 02:36:38;;;;;;;1999.90;999.90;;;-1.50;99.90;;;;;;5036048;28;20033;-74
2023/12/03 02:39:05;;;;;;;1999.90;999.90;;;-1.50;99.90;;;;;;5036307;28;20507;-74
2023/12/03 02:41:31;;;;;;;1999.90;999.90;;;-1.50;99.90;;;;;;5034462;28;20041;-74
2023/12/03 02:43:57;;;;;;;1999.90;999.90;;;-1.40;99.90;;;;;;5036292;28;20120;-73
2023/12/03 02:46:22;;;;;;;1999.90;999.90;;;-1.40;99.90;;;;;;5034391;28;20172;-73
2023/12/03 02:48:48;;;;;;;1999.90;999.90;;;-1.40;99.90;;;;;;5035959;28;20038;-73
2023/12/03 02:51:14;;;;;;;1999.90;999.90;;;-1.40;99.90;;;;;;5035689;28;20038;-73
2023/12/03 02:53:40;;;;;;;1999.90;999.90;;;-1.40;99.90;;;;;;5035725;28;20030;-73
2023/12/03 02:56:06;;;;;;;1999.90;999.90;;;-1.40;99.90;;;;;;5035865;28;20049;-73
2023/12/03 02:58:32;;;;;;;1999.90;999.90;;;-1.40;99.90;;;;;;5026699;28;20114;-73
2023/12/03 03:00:58;;;;;;;1999.90;999.90;;;-1.50;99.90;;;;;;5031763;28;20073;-73
2023/12/03 03:03:24;;;;;;;1999.90;999.90;;;-1.50;99.90;;;;;;5035743;28;20030;-73
2023/12/03 03:05:49;;;;;;;1999.90;999.90;;;-1.50;99.90;;;;;;5034007;28;20038;-73
2023/12/03 03:08:15;;;;;;;1999.90;999.90;;;-1.60;99.90;;;;;;5035715;28;20569;-73
2023/12/03 03:10:40;;;;;;;1999.90;999.90;;;-1.50;99.90;;;;;;5035399;28;20048;-73
2023/12/03 03:13:07;;;;;;;1999.90;999.90;;;-1.50;99.90;;;;;;5034238;28;20041;-73
2023/12/03 03:15:33;;;;;;;1999.90;999.90;;;-1.50;99.90;;;;;;5034261;28;20042;-73
2023/12/03 03:17:58;;;;;;;1999.90;999.90;;;-1.60;99.90;;;;;;5035300;28;20034;-73
2023/12/03 03:20:24;;;;;;;1999.90;999.90;;;-1.60;99.90;;;;;;5035628;28;20034;-73
2023/12/03 03:22:50;;;;;;;1999.90;999.90;;;-1.60;99.90;;;;;;5034533;28;20061;-73
2023/12/03 03:25:16;;;;;;;1999.90;999.90;;;-1.50;99.90;;;;;;5035684;28;20558;-73
2023/12/03 03:27:42;;;;;;;1999.90;999.90;;;-1.50;99.90;;;;;;5035348;28;20507;-73
2023/12/03 03:30:08;;;;;;;1999.90;999.90;;;-1.50;99.90;;;;;;5034274;28;20044;-73
2023/12/03 03:32:33;;;;;;;1999.90;999.90;;;-1.50;99.90;;;;;;5034823;28;20029;-73
2023/12/03 03:34:59;;;;;;;1999.90;999.90;;;-1.50;99.90;;;;;;5035318;28;20034;-73
2023/12/03 03:37:25;;;;;;;1999.90;999.90;;;-1.40;99.90;;;;;;5035223;28;20061;-73
2023/12/03 03:39:51;;;;;;;1999.90;999.90;;;-1.50;99.90;;;;;;5035419;28;20034;-73
2023/12/03 03:42:16;;;;;;;1999.90;999.90;;;-1.50;99.90;;;;;;5035217;28;20037;-73
2023/12/03 03:44:42;;;;;;;1999.90;999.90;;;-1.50;99.90;;;;;;5033826;28;20503;-73
2023/12/03 03:47:13;;;;;;;1999.90;999.90;;;-1.60;99.90;;;;;;5035561;28;20045;-75
2023/12/03 03:49:39;;;;;;;1999.90;999.90;;;-1.60;99.90;;;;;;5036074;28;20033;-73
2023/12/03 03:52:05;;;;;;;1999.90;999.90;;;-1.60;99.90;;;;;;5035044;28;20061;-73
2023/12/03 03:54:30;;;;;;;1999.90;999.90;;;-1.60;99.90;;;;;;5034986;28;20480;-73
2023/12/03 03:56:57;;;;;;;1999.90;999.90;;;-1.50;99.90;;;;;;5034965;28;20042;-73
2023/12/03 03:59:23;;;;;;;1999.90;999.90;;;-1.60;99.90;;;;;;5034783;28;20109;-73
2023/12/03 04:01:48;;;;;;;1999.90;999.90;;;-1.50;99.90;;;;;;5021230;28;20125;-73
2023/12/03 04:04:14;;;;;;;1999.90;999.90;;;-1.40;99.90;;;;;;5034529;28;20475;-73
2023/12/03 04:06:41;;;;;;;1999.90;999.90;;;-1.50;99.90;;;;;;5033271;28;20034;-73
2023/12/03 04:09:09;;;;;;;1999.90;999.90;;;-1.50;99.90;;;;;;5034584;28;20030;-73
2023/12/03 04:11:42;;;;;;;1999.90;999.90;;;-1.50;99.90;;;;;;5015925;28;20046;-73
2023/12/03 04:14:08;;;;;;;1999.90;999.90;;;-1.50;99.90;;;;;;5025139;28;20042;-73
2023/12/03 04:16:34;;;;;;;1999.90;999.90;;;-1.50;99.90;;;;;;5014788;28;20060;-73
2023/12/03 04:19:03;;;;;;;1999.90;999.90;;;-1.60;99.90;;;;;;5023338;28;20432;-73
2023/12/03 04:21:29;;;;;;;1999.90;999.90;;;-1.70;99.90;;;;;;5018184;28;20113;-74
2023/12/03 04:23:56;;;;;;;1999.90;999.90;;;-1.60;99.90;;;;;;5034380;28;20032;-73
2023/12/03 04:26:21;;;;;;;1999.90;999.90;;;-1.60;99.90;;;;;;5025665;28;20101;-74
2023/12/03 04:28:47;;;;;;;1999.90;999.90;;;-1.60;99.90;;;;;;5015280;28;20077;-73
2023/12/03 04:31:25;;;;;;;1999.90;999.90;;;-1.60;99.90;;;;;;5034405;28;20034;-73
2023/12/03 04:33:51;;;;;;;1999.90;999.90;;;-1.60;99.90;;;;;;5014672;28;20068;-74
2023/12/03 04:36:23;;;;;;;1999.90;999.90;;;-1.60;99.90;;;;;;5018628;28;20104;-73
2023/12/03 04:38:53;;;;;;;1999.90;999.90;;;-1.50;99.90;;;;;;5024024;28;20097;-73
2023/12/03 04:41:18;;;;;;;1999.90;999.90;;;-1.60;99.90;;;;;;5026721;28;20044;-73
2023/12/03 04:43:44;;;;;;;1999.90;999.90;;;-1.50;99.90;;;;;;5020140;28;20065;-73
2023/12/03 04:46:10;;;;;;;1999.90;999.90;;;-1.60;99.90;;;;;;5014417;28;20077;-73
2023/12/03 04:48:36;;;;;;;1999.90;999.90;;;-1.50;99.90;;;;;;5014426;28;20035;-73
2023/12/03 04:51:02;;;;;;;1999.90;999.90;;;-1.50;99.90;;;;;;5026888;28;20470;-73
2023/12/03 04:53:28;;;;;;;1999.90;999.90;;;-1.50;99.90;;;;;;5032996;28;20034;-73
2023/12/03 04:55:53;;;;;;;1999.90;999.90;;;-1.50;99.90;;;;;;5022448;28;20043;-73
2023/12/03 04:58:19;;;;;;;1999.90;999.90;;;-1.50;99.90;;;;;;5028631;28;20033;-73
2023/12/03 05:00:45;;;;;;;1999.90;999.90;;;-1.50;99.90;;;;;;5031999;28;20096;-73
2023/12/03 05:03:10;;;;;;;1999.90;999.90;;;-1.50;99.90;;;;;;5020571;28;20089;-73
2023/12/03 05:05:36;;;;;;;1999.90;999.90;;;-1.60;99.90;;;;;;5014388;28;20125;-73
2023/12/03 05:08:01;;;;;;;1999.90;999.90;;;-1.60;99.90;;;;;;5025290;28;20030;-74
2023/12/03 05:10:29;;;;;;;1999.90;999.90;;;-1.60;99.90;;;;;;5022385;28;20034;-73
2023/12/03 05:12:54;;;;;;;1999.90;999.90;;;-1.60;99.90;;;;;;5029106;28;20130;-73
2023/12/03 05:15:20;;;;;;;1999.90;999.90;;;-1.60;99.90;;;;;;5023600;28;20038;-73
2023/12/03 05:17:49;;;;;;;1999.90;999.90;;;-1.60;99.90;;;;;;5025487;28;20038;-74
2023/12/03 05:20:15;;;;;;;1999.90;999.90;;;-1.60;99.90;;;;;;5013982;28;20035;-73
2023/12/03 05:22:43;;;;;;;1999.90;999.90;;;-1.60;99.90;;;;;;5021776;28;20045;-73
2023/12/03 05:25:10;;;;;;;1999.90;999.90;;;-1.70;99.90;;;;;;5018899;28;20472;-72
2023/12/03 05:27:36;;;;;;;1999.90;999.90;;;-1.80;99.90;;;;;;5024890;28;20033;-73
2023/12/03 05:30:04;;;;;;;1999.90;999.90;;;-1.80;99.90;;;;;;5016849;28;20038;-73
2023/12/03 05:32:29;;;;;;;1999.90;999.90;;;-1.80;99.90;;;;;;5031879;28;20038;-73
2023/12/03 05:34:55;;;;;;;1999.90;999.90;;;-1.80;99.90;;;;;;5033537;28;20040;-72
2023/12/03 05:37:20;;;;;;;1999.90;999.90;;;-1.80;99.90;;;;;;5026665;28;20111;-72
2023/12/03 05:39:46;;;;;;;1999.90;999.90;;;-1.70;99.90;;;;;;5015070;28;20035;-73
2023/12/03 05:42:13;;;;;;;1999.90;999.90;;;-1.70;99.90;;;;;;5033657;28;20037;-73
2023/12/03 05:44:39;;;;;;;1999.90;999.90;;;-1.70;99.90;;;;;;5020475;28;20042;-73
2023/12/03 05:47:07;;;;;;;1999.90;999.90;;;-1.70;99.90;;;;;;5020695;28;20046;-73
2023/12/03 05:49:32;;;;;;;1999.90;999.90;;;-1.60;99.90;;;;;;5029803;28;20089;-72
2023/12/03 05:51:59;;;;;;;1999.90;999.90;;;-1.60;99.90;;;;;;5023128;28;20041;-73
2023/12/03 05:54:24;;;;;;;1999.90;999.90;;;-1.60;99.90;;;;;;5022832;28;20174;-72
2023/12/03 05:56:50;;;;;;;1999.90;999.90;;;-1.60;99.90;;;;;;5025272;28;20708;-73
2023/12/03 05:59:16;;;;;;;1999.90;999.90;;;-1.70;99.90;;;;;;5035270;28;20579;-73
2023/12/03 06:01:41;;;;;;;1999.90;999.90;;;-1.70;99.90;;;;;;5021298;28;20121;-74
2023/12/03 06:04:07;;;;;;;1999.90;999.90;;;-1.90;99.90;;;;;;5036862;28;20041;-73
2023/12/03 06:06:36;;;;;;;1999.90;999.90;;;-2.10;99.90;;;;;;5020335;28;20779;-73
2023/12/03 06:09:05;;;;;;;1999.90;999.90;;;-2.20;99.90;;;;;;5016807;28;20468;-72
2023/12/03 06:11:35;;;;;;;1999.90;999.90;;;-2.40;99.90;;;;;;5016644;28;20034;-73
2023/12/03 06:14:01;;;;;;;1999.90;999.90;;;-2.50;99.90;;;;;;5024086;28;20027;-73
2023/12/03 06:16:27;;;;;;;1999.90;999.90;;;-2.60;99.90;;;;;;5031486;28;20488;-73
2023/12/03 06:18:52;;;;;;;1999.90;999.90;;;-2.70;99.90;;;;;;5032421;28;20089;-73
2023/12/03 06:21:18;;;;;;;1999.90;999.90;;;-2.70;99.90;;;;;;5023876;28;20161;-73
2023/12/03 06:23:43;;;;;;;1999.90;999.90;;;-2.80;99.90;;;;;;5017294;28;20038;-73
2023/12/03 06:26:09;;;;;;;1999.90;999.90;;;-2.90;99.90;;;;;;5029184;28;20079;-72
2023/12/03 06:28:35;;;;;;;1999.90;999.90;;;-3.00;99.90;;;;;;5020042;28;20038;-72
2023/12/03 06:31:01;;;;;;;1999.90;999.90;;;-3.10;99.90;;;;;;5014915;28;20038;-72
2023/12/03 06:33:26;;;;;;;1999.90;999.90;;;-3.10;99.90;;;;;;5032807;28;20065;-72
2023/12/03 06:35:53;;;;;;;1999.90;999.90;;;-3.20;99.90;;;;;;5025817;28;20042;-72
2023/12/03 06:38:21;;;;;;;1999.90;999.90;;;-3.20;99.90;;;;;;5016543;28;20070;-73
2023/12/03 06:40:47;;;;;;;1999.90;999.90;;;-3.20;99.90;;;;;;5021801;28;20034;-74
2023/12/03 06:43:12;;;;;;;1999.90;999.90;;;-3.40;99.90;;;;;;5035601;28;20034;-74
2023/12/03 06:45:38;;;;;;;1999.90;999.90;;;-3.40;99.90;;;;;;5034375;28;20049;-73
2023/12/03 06:48:04;;;;;;;1999.90;999.90;;;-3.50;99.90;;;;;;5035346;28;20034;-72
2023/12/03 06:50:29;;;;;;;1999.90;999.90;;;-3.50;99.90;;;;;;5035807;28;20112;-73
2023/12/03 06:52:58;;;;;;;1999.90;999.90;;;-3.50;99.90;;;;;;5022639;28;20056;-73
2023/12/03 06:55:23;;;;;;;1999.90;999.90;;;-3.50;99.90;;;;;;5024034;28;20034;-74
2023/12/03 06:57:50;;;;;;;1999.90;999.90;;;-3.40;99.90;;;;;;5028033;28;20038;-73
2023/12/03 07:00:16;;;;;;;1999.90;999.90;;;-3.30;99.90;;;;;;5034822;28;20132;-73
2023/12/03 07:02:41;;;;;;;1999.90;999.90;;;-3.30;99.90;;;;;;5020960;28;20046;-73
2023/12/03 07:05:07;;;;;;;1999.90;999.90;;;-3.30;99.90;;;;;;5034734;28;20061;-72
2023/12/03 07:07:36;;;;;;;1999.90;999.90;;;-3.30;99.90;;;;;;5032838;28;20067;-73
2023/12/03 07:10:02;;;;;;;1999.90;999.90;;;-3.30;99.90;;;;;;5035611;28;20116;-73
2023/12/03 07:12:28;;;;;;;1999.90;999.90;;;-3.30;99.90;;;;;;5033111;28;20042;-73
2023/12/03 07:14:54;;;;;;;1999.90;999.90;;;-3.40;99.90;;;;;;5015643;28;20085;-73
2023/12/03 07:17:19;;;;;;;1999.90;999.90;;;-3.40;99.90;;;;;;5032802;28;20034;-73
2023/12/03 07:19:46;;;;;;;1999.90;999.90;;;-3.50;99.90;;;;;;5018734;28;20034;-73
2023/12/03 07:22:11;;;;;;;1999.90;999.90;;;-3.50;99.90;;;;;;5034700;28;20042;-73
2023/12/03 07:24:38;;;;;;;1999.90;999.90;;;-3.50;99.90;;;;;;5027133;28;20030;-73
2023/12/03 07:27:04;;;;;;;1999.90;999.90;;;-3.50;99.90;;;;;;5027394;28;20035;-73
2023/12/03 07:29:29;;;;;;;1999.90;999.90;;;-3.50;99.90;;;;;;5014493;28;20520;-74
2023/12/03 07:31:55;;;;;;;1999.90;999.90;;;-3.60;99.90;;;;;;5020402;28;20072;-74
2023/12/03 07:34:20;;;;;;;1999.90;999.90;;;-3.50;99.90;;;;;;5035622;28;20109;-74
2023/12/03 07:36:46;;;;;;;1999.90;999.90;;;-3.40;99.90;;;;;;5025401;28;20042;-73
2023/12/03 07:39:11;;;;;;;1999.90;999.90;;;-3.40;99.90;;;;;;5030032;28;20080;-73
2023/12/03 07:41:37;;;;;;;1999.90;999.90;;;-3.40;99.90;;;;;;5031931;28;20042;-72
2023/12/03 07:44:03;;;;;;;1999.90;999.90;;;-3.40;99.90;;;;;;5033699;28;20065;-77
2023/12/03 07:46:28;;;;;;;1999.90;999.90;;;-3.30;99.90;;;;;;5033657;28;20033;-74
2023/12/03 07:48:54;;;;;;;1999.90;999.90;;;-3.30;99.90;;;;;;5037670;28;20034;-74
2023/12/03 07:51:20;;;;;;;1999.90;999.90;;;-3.30;99.90;;;;;;5027822;28;20076;-74
2023/12/03 07:53:46;;;;;;;1999.90;999.90;;;-3.30;99.90;;;;;;5019208;28;20038;-75
2023/12/03 07:56:12;;;;;;;1999.90;999.90;;;-3.30;99.90;;;;;;5036980;28;20038;-71
2023/12/03 07:58:37;;;;;;;1999.90;999.90;;;-3.30;99.90;;;;;;5046318;28;20100;-72
2023/12/03 08:01:05;;;;;;;1999.90;999.90;;;-3.20;99.90;;;;;;5044513;28;20037;-72
2023/12/03 08:03:30;;;;;;;1999.90;999.90;;;-3.20;99.90;;;;;;5016845;28;20141;-78
2023/12/03 08:05:56;;;;;;;1999.90;999.90;;;-3.20;99.90;;;;;;5032976;28;20112;-79
2023/12/03 08:08:22;;;;;;;1999.90;999.90;;;-3.10;99.90;;;;;;5023042;28;20128;-73
2023/12/03 08:10:47;;;;;;;1999.90;999.90;;;-3.00;99.90;;;;;;5033371;28;20041;-78
2023/12/03 08:13:13;;;;;;;1999.90;999.90;;;-2.80;99.90;;;;;;5035455;28;20081;-75
2023/12/03 08:15:38;;;;;;;1999.90;999.90;;;-2.80;99.90;;;;;;5036642;28;20037;-74
2023/12/03 08:18:04;;;;;;;1999.90;999.90;;;-2.70;99.90;;;;;;5036574;28;20057;-75
2023/12/03 08:20:30;;;;;;;1999.90;999.90;;;-2.60;99.90;;;;;;5036102;28;20061;-74
2023/12/03 08:22:56;;;;;;;1999.90;999.90;;;-2.70;99.90;;;;;;5039041;28;20617;-74
2023/12/03 08:25:21;;;;;;;1999.90;999.90;;;-2.60;99.90;;;;;;5026232;28;20039;-74
2023/12/03 08:27:47;;;;;;;1999.90;999.90;;;-2.40;99.90;;;;;;5019146;28;20125;-74
2023/12/03 08:30:16;;;;;;;1999.90;999.90;;;-2.40;99.90;;;;;;5041691;28;20104;-77
2023/12/03 08:32:41;;;;;;;1999.90;999.90;;;-2.40;99.90;;;;;;5044406;28;20047;-74
2023/12/03 08:35:07;;;;;;;1999.90;999.90;;;-2.40;99.90;;;;;;5033063;28;20038;-75
2023/12/03 08:37:33;;;;;;;1999.90;999.90;;;-2.40;99.90;;;;;;5034395;28;20403;-74
2023/12/03 08:39:59;;;;;;;1999.90;999.90;;;-2.50;99.90;;;;;;5033457;28;20488;-75
2023/12/03 08:42:25;;;;;;;1999.90;999.90;;;-2.40;99.90;;;;;;5014285;28;20140;-73
2023/12/03 08:44:50;;;;;;;1999.90;999.90;;;-2.40;99.90;;;;;;5034232;28;20546;-74
2023/12/03 08:47:16;;;;;;;1999.90;999.90;;;-2.40;99.90;;;;;;5033906;28;20202;-74
2023/12/03 08:49:41;;;;;;;1999.90;999.90;;;-2.30;99.90;;;;;;5025613;28;20097;-72
2023/12/03 08:52:08;;;;;;;1999.90;999.90;;;-2.20;99.90;;;;;;5015829;28;20038;-71
2023/12/03 08:54:34;;;;;;;1999.90;999.90;;;-2.20;99.90;;;;;;5019439;28;20034;-73
2023/12/03 08:56:59;;;;;;;1999.90;999.90;;;-2.20;99.90;;;;;;5026369;28;20045;-72
2023/12/03 08:59:25;;;;;;;1999.90;999.90;;;-2.10;99.90;;;;;;5033242;28;20042;-73
2023/12/03 09:01:51;;;;;;;1999.90;999.90;;;-2.10;99.90;;;;;;5014715;28;20038;-71
2023/12/03 09:04:16;;;;;;;1999.90;999.90;;;-2.10;99.90;;;;;;5020688;28;20041;-71
2023/12/03 09:06:44;;;;;;;1999.90;999.90;;;-2.10;99.90;;;;;;5026475;28;20046;-72
2023/12/03 09:09:09;;;;;;;1999.90;999.90;;;-2.00;99.90;;;;;;5014003;28;20038;-73
2023/12/03 09:11:35;;;;;;;1999.90;999.90;;;-2.00;99.90;;;;;;5030964;28;20042;-72
2023/12/03 09:14:01;;;;;;;1999.90;999.90;;;-2.00;99.90;;;;;;5033519;28;20064;-73
2023/12/03 09:16:27;;;;;;;1999.90;999.90;;;-1.90;99.90;;;;;;5033425;28;20388;-73
2023/12/03 09:18:52;;;;;;;1999.90;999.90;;;-1.90;99.90;;;;;;5014902;28;20043;-76
2023/12/03 09:21:18;;;;;;;1999.90;999.90;;;-1.80;99.90;;;;;;5017419;28;20034;-72
2023/12/03 09:23:43;;;;;;;1999.90;999.90;;;-1.80;99.90;;;;;;5033342;28;20361;-72
2023/12/03 09:26:09;;;;;;;1999.90;999.90;;;-1.80;99.90;;;;;;5033032;28;20045;-72
2023/12/03 09:28:35;;;;;;;1999.90;999.90;;;-1.80;99.90;;;;;;5026690;28;20041;-72
2023/12/03 09:31:00;;;;;;;1999.90;999.90;;;-1.70;99.90;;;;;;5035772;28;20096;-72
2023/12/03 09:33:27;;;;;;;1999.90;999.90;;;-1.70;99.90;;;;;;5036895;28;20464;-70
2023/12/03 09:35:53;;;;;;;1999.90;999.90;;;-1.60;99.90;;;;;;5036869;28;20044;-72
2023/12/03 09:38:19;;;;;;;1999.90;999.90;;;-1.60;99.90;;;;;;5022524;28;20103;-72
2023/12/03 09:40:47;;;;;;;1999.90;999.90;;;-1.50;99.90;;;;;;5021127;28;20096;-72
2023/12/03 09:43:16;;;;;;;1999.90;999.90;;;-1.50;99.90;;;;;;5029627;28;20029;-72
2023/12/03 09:45:43;;;;;;;1999.90;999.90;;;-1.50;99.90;;;;;;5035644;28;20065;-71
2023/12/03 09:48:10;;;;;;;1999.90;999.90;;;-1.40;99.90;;;;;;5035390;28;20038;-72
2023/12/03 09:50:37;;;;;;;1999.90;999.90;;;-1.40;99.90;;;;;;5018992;28;20118;-72
2023/12/03 09:53:04;;;;;;;1999.90;999.90;;;-1.40;99.90;;;;;;5015835;28;20542;-71
2023/12/03 09:55:31;;;;;;;1999.90;999.90;;;-1.30;99.90;;;;;;5022840;28;20480;-72
2023/12/03 09:57:59;;;;;;;1999.90;999.90;;;-1.30;99.90;;;;;;5027553;28;20490;-72
2023/12/03 10:00:24;;;;;;;1999.90;999.90;;;-1.30;99.90;;;;;;5027726;28;20064;-72
2023/12/03 10:02:52;;;;;;;1999.90;999.90;;;-1.20;99.90;;;;;;5016341;28;20038;-72
2023/12/03 10:05:18;;;;;;;1999.90;999.90;;;-1.10;99.90;;;;;;5023040;28;20033;-71
2023/12/03 10:07:47;;;;;;;1999.90;999.90;;;-1.10;99.90;;;;;;5036278;28;20496;-72
2023/12/03 10:10:16;;;;;;;1999.90;999.90;;;-1.10;99.90;;;;;;5034528;28;20117;-72
2023/12/03 10:12:42;;;;;;;1999.90;999.90;;;-1.10;99.90;;;;;;5035034;28;20099;-72
2023/12/03 10:15:12;;;;;;;1999.90;999.90;;;-1.00;99.90;;;;;;5030320;28;20042;-72
2023/12/03 10:17:39;;;;;;;1999.90;999.90;;;-1.00;99.90;;;;;;5028779;28;20045;-71
2023/12/03 10:20:27;;;;;;;1999.90;999.90;;;-0.90;99.90;;;;;;5024513;28;20019;-72
2023/12/03 10:22:58;;;;;;;1999.90;999.90;;;-0.80;99.90;;;;;;5026880;28;20068;-73
2023/12/03 10:25:32;;;;;;;1999.90;999.90;;;-0.80;99.90;;;;;;5035843;28;20039;-72
2023/12/03 10:28:00;;;;;;;1999.90;999.90;;;-0.80;99.90;;;;;;5036456;28;20049;-72
2023/12/03 10:30:25;;;;;;;1999.90;999.90;;;-0.70;99.90;;;;;;5027982;28;20030;-71
2023/12/03 10:32:51;;;;;;;1999.90;999.90;;;-0.70;99.90;;;;;;5036181;28;20442;-72
2023/12/03 10:35:23;;;;;;;1999.90;999.90;;;-0.60;99.90;;;;;;5036159;28;20030;-72
2023/12/03 10:37:50;;;;;;;1999.90;999.90;;;-0.50;99.90;;;;;;5035587;28;20042;-72
2023/12/03 10:40:16;;;;;;;1999.90;999.90;;;-0.50;99.90;;;;;;5036030;28;20026;-72
2023/12/03 10:42:43;;;;;;;1999.90;999.90;;;-0.50;99.90;;;;;;5017943;28;20034;-72
2023/12/03 10:45:10;;;;;;;1999.90;999.90;;;-0.50;99.90;;;;;;5020444;28;20085;-72
2023/12/03 10:47:37;;;;;;;1999.90;999.90;;;-0.50;99.90;;;;;;5025780;28;20049;-77
2023/12/03 10:50:05;;;;;;;1999.90;999.90;;;-0.40;99.90;;;;;;5036134;28;20034;-72
2023/12/03 10:52:32;;;;;;;1999.90;999.90;;;-0.40;99.90;;;;;;5031253;28;20117;-73
2023/12/03 10:54:58;;;;;;;1999.90;999.90;;;-0.30;99.90;;;;;;5027373;28;20470;-72
2023/12/03 10:57:31;;;;;;;1999.90;999.90;;;-0.40;99.90;;;;;;5024403;28;20052;-73
2023/12/03 11:00:09;;;;;;;1999.90;999.90;;;-0.40;99.90;;;;;;5035993;28;20042;-72
2023/12/03 11:03:24;;;;;;;1999.90;999.90;;;-0.30;99.90;;;;;;5024166;28;20045;-74
2023/12/03 11:05:52;;;;;;;1999.90;999.90;;;-0.30;99.90;;;;;;4997904;28;20141;-74
2023/12/03 11:08:20;;;;;;;1999.90;999.90;;;-0.20;99.90;;;;;;5031902;28;20061;-74
2023/12/03 11:10:46;;;;;;;1999.90;999.90;;;-0.20;99.90;;;;;;5043484;28;20043;-74
2023/12/03 11:13:12;;;;;;;1999.90;999.90;;;-0.20;99.90;;;;;;5027368;28;20035;-74
2023/12/03 11:15:40;;;;;;;1999.90;999.90;;;-0.10;99.90;;;;;;5029962;28;20046;-73
2023/12/03 11:18:07;;;;;;;1999.90;999.90;;;-0.10;99.90;;;;;;5027174;28;20120;-75
2023/12/03 11:20:37;;;;;;;1999.90;999.90;;;-0.10;99.90;;;;;;5029631;28;20037;-73
2023/12/03 11:23:30;;;;;;;1999.90;999.90;;;0.00;99.90;;;;;;5023623;28;20044;-72
2023/12/03 11:26:12;;;;;;;1999.90;999.90;;;0.00;99.90;;;;;;5022117;28;20042;-73
2023/12/03 11:28:53;;;;;;;1999.90;999.90;;;0.10;99.90;;;;;;5027011;28;20130;-73
2023/12/03 11:31:18;;;;;;;1999.90;999.90;;;0.10;99.90;;;;;;5017877;28;20049;-73
2023/12/03 11:33:58;;;;;;;1999.90;999.90;;;0.10;99.90;;;;;;5022463;28;20038;-73
2023/12/03 11:36:52;;;;;;;1999.90;999.90;;;0.10;99.90;;;;;;5032540;28;20104;-73
2023/12/03 11:39:19;;;;;;;1999.90;999.90;;;0.20;99.90;;;;;;5035456;28;20034;-73
2023/12/03 11:41:45;;;;;;;1999.90;999.90;;;0.20;99.90;;;;;;5014655;28;20042;-73
2023/12/03 11:44:21;;;;;;;1999.90;999.90;;;0.30;99.90;;;;;;5029885;28;20373;-73
2023/12/03 11:47:00;;;;;;;1999.90;999.90;;;0.30;99.90;;;;;;5030175;28;20098;-73
2023/12/03 11:49:28;;;;;;;1999.90;999.90;;;0.30;99.90;;;;;;5029373;28;20037;-73
2023/12/03 11:51:53;;;;;;;1999.90;999.90;;;0.40;99.90;;;;;;5021456;28;20637;-74
2023/12/03 11:54:28;;;;;;;1999.90;999.90;;;0.40;99.90;;;;;;5035185;28;20180;-73
2023/12/03 11:56:54;;;;;;;1999.90;999.90;;;0.40;99.90;;;;;;5034744;28;20034;-73